Morholmen — 3EUC6 — position and weather

sailwx.info

Track history (hours):
 
Tides and Currents Weather Stations Pressure Air Temp Water Temp Dewpoint Dewpoint Depression Visibility Wind Speed Wind Dir Waves Ship Positions

Morholmen

Last reported at 2018-Feb-01 18:00 UTC. Time now 2018-Feb-18 22:24 UTC.
Position N 29°05' W 093°42'.
Warning: this ship's position is 17 days out of date.

; draft 7.8 m.

Type: Ship. MMSI: 351106000.

Date/timePositionNaut miles runAvg speedWind from/ knotsBaromVisibWave heightAir tempDewpointWater temp
2018-Feb-01 18:00N 29°05' W 093°42'1 0.2
2018-Feb-01 09:38N 29°07' W 093°43'0 0.0
2018-Feb-01 09:29N 29°07' W 093°43'0 0.0
2018-Feb-01 07:05N 29°07' W 093°43'0 0.0
2018-Feb-01 06:08N 29°07' W 093°43'0 0.0
2018-Feb-01 05:59N 29°07' W 093°43'0 0.2
2018-Feb-01 05:30N 29°07' W 093°42'1 0.9
2018-Feb-01 04:55N 29°07' W 093°42'0 0.0
2018-Feb-01 04:22N 29°07' W 093°42'0 0.0
2018-Feb-01 03:55N 29°07' W 093°42'0 0.0
2018-Feb-01 02:55N 29°07' W 093°42'0 0.1
2018-Feb-01 02:28N 29°07' W 093°42'0 0.0
2018-Feb-01 01:58N 29°07' W 093°42'0 0.0
2018-Feb-01 01:19N 29°07' W 093°42'0 0.0
2018-Jan-31 23:40N 29°07' W 093°42'0 0.0
2018-Jan-31 22:43N 29°07' W 093°42'0 0.0
2018-Jan-31 22:28N 29°07' W 093°42'33 7.0
2018-Jan-31 17:45N 29°02' W 094°19'510.9
2018-Jan-31 17:18N 29°03' W 094°25'411.0
2018-Jan-31 16:58N 29°03' W 094°29'610.9
2018-Jan-31 16:26N 29°03' W 094°36'3 7.1
2018-Jan-31 16:00N 29°04' W 094°39'1 1.2
2018-Jan-31 15:24N 29°04' W 094°40'0 0.0
2018-Jan-31 15:00N 29°04' W 094°40'0 0.0
2018-Jan-31 14:06N 29°04' W 094°40'0 0.0
2018-Jan-31 12:33N 29°04' W 094°40'0 0.0
2018-Jan-31 12:30N 29°04' W 094°40'0 0.0
2018-Jan-31 12:00N 29°04' W 094°40'0 0.0
2018-Jan-31 11:27N 29°04' W 094°40'0 0.1
2018-Jan-31 10:57N 29°04' W 094°40'0 0.0
2018-Jan-31 10:30N 29°04' W 094°40'0 0.0
2018-Jan-31 09:33N 29°04' W 094°40'0 0.1
2018-Jan-31 09:27N 29°04' W 094°40'0 0.0
2018-Jan-31 09:00N 29°04' W 094°40'0 0.0
2018-Jan-31 08:30N 29°04' W 094°40'0 0.0
2018-Jan-31 07:51N 29°04' W 094°40'0 0.0
2018-Jan-31 07:24N 29°04' W 094°40'0 0.0
2018-Jan-31 06:48N 29°04' W 094°40'0 0.1
2018-Jan-31 06:27N 29°04' W 094°40'0 0.0
2018-Jan-31 05:57N 29°04' W 094°40'0 0.0
2018-Jan-31 05:30N 29°04' W 094°40'0 0.0
2018-Jan-31 05:00N 29°04' W 094°40'0 0.0
2018-Jan-31 04:30N 29°04' W 094°40'0 0.0
2018-Jan-31 04:00N 29°04' W 094°40'2 0.3
2018-Jan-30 22:29N 29°04' W 094°42'0 0.0
2018-Jan-30 16:15N 29°04' W 094°42'0 0.0
2018-Jan-30 16:00N 29°04' W 094°42'1 2.0
2018-Jan-30 15:20N 29°02' W 094°42'1 0.2
2018-Jan-30 11:44N 29°03' W 094°41'2 0.1
2018-Jan-29 16:37N 29°05' W 094°42'0 0.0
2018-Jan-29 16:22N 29°05' W 094°42'0 0.0
2018-Jan-29 15:55N 29°05' W 094°42'0 0.0
2018-Jan-29 15:01N 29°05' W 094°42'0 0.1
2018-Jan-29 14:55N 29°05' W 094°42'0 0.0
2018-Jan-29 14:28N 29°05' W 094°42'0 0.0
2018-Jan-29 13:58N 29°05' W 094°42'0 0.0
2018-Jan-29 13:28N 29°05' W 094°42'0 0.0
2018-Jan-29 12:49N 29°05' W 094°42'0 0.0
2018-Jan-29 12:25N 29°05' W 094°42'0 0.0
2018-Jan-29 11:55N 29°05' W 094°42'0 0.0
2018-Jan-29 11:25N 29°05' W 094°42'  
Track history (hours):
 
Tides and Currents Weather Stations Pressure Air Temp Water Temp Dewpoint Dewpoint Depression Visibility Wind Speed Wind Dir Waves Ship Positions

Morholmen

Last reported at 2018-Feb-01 18:00 UTC. Time now 2018-Feb-18 22:24 UTC.
Position N 29°05' W 093°42'.
Warning: this ship's position is 17 days out of date.

; draft 7.8 m.

Type: Ship. MMSI: 351106000.

Date/timePositionNaut miles runAvg speedWind from/ knotsBaromVisibWave heightAir tempDewpointWater temp
2018-Feb-01 18:00N 29°05' W 093°42'1 0.2
2018-Feb-01 09:38N 29°07' W 093°43'0 0.0
2018-Feb-01 09:29N 29°07' W 093°43'0 0.0
2018-Feb-01 07:05N 29°07' W 093°43'0 0.0
2018-Feb-01 06:08N 29°07' W 093°43'0 0.0
2018-Feb-01 05:59N 29°07' W 093°43'0 0.2
2018-Feb-01 05:30N 29°07' W 093°42'1 0.9
2018-Feb-01 04:55N 29°07' W 093°42'0 0.0
2018-Feb-01 04:22N 29°07' W 093°42'0 0.0
2018-Feb-01 03:55N 29°07' W 093°42'0 0.0
2018-Feb-01 02:55N 29°07' W 093°42'0 0.1
2018-Feb-01 02:28N 29°07' W 093°42'0 0.0
2018-Feb-01 01:58N 29°07' W 093°42'0 0.0
2018-Feb-01 01:19N 29°07' W 093°42'0 0.0
2018-Jan-31 23:40N 29°07' W 093°42'0 0.0
2018-Jan-31 22:43N 29°07' W 093°42'0 0.0
2018-Jan-31 22:28N 29°07' W 093°42'33 7.0
2018-Jan-31 17:45N 29°02' W 094°19'510.9
2018-Jan-31 17:18N 29°03' W 094°25'411.0
2018-Jan-31 16:58N 29°03' W 094°29'610.9
2018-Jan-31 16:26N 29°03' W 094°36'3 7.1
2018-Jan-31 16:00N 29°04' W 094°39'1 1.2
2018-Jan-31 15:24N 29°04' W 094°40'0 0.0
2018-Jan-31 15:00N 29°04' W 094°40'0 0.0
2018-Jan-31 14:06N 29°04' W 094°40'0 0.0
2018-Jan-31 12:33N 29°04' W 094°40'0 0.0
2018-Jan-31 12:30N 29°04' W 094°40'0 0.0
2018-Jan-31 12:00N 29°04' W 094°40'0 0.0
2018-Jan-31 11:27N 29°04' W 094°40'0 0.1
2018-Jan-31 10:57N 29°04' W 094°40'0 0.0
2018-Jan-31 10:30N 29°04' W 094°40'0 0.0
2018-Jan-31 09:33N 29°04' W 094°40'0 0.1
2018-Jan-31 09:27N 29°04' W 094°40'0 0.0
2018-Jan-31 09:00N 29°04' W 094°40'0 0.0
2018-Jan-31 08:30N 29°04' W 094°40'0 0.0
2018-Jan-31 07:51N 29°04' W 094°40'0 0.0
2018-Jan-31 07:24N 29°04' W 094°40'0 0.0
2018-Jan-31 06:48N 29°04' W 094°40'0 0.1
2018-Jan-31 06:27N 29°04' W 094°40'0 0.0
2018-Jan-31 05:57N 29°04' W 094°40'0 0.0
2018-Jan-31 05:30N 29°04' W 094°40'0 0.0
2018-Jan-31 05:00N 29°04' W 094°40'0 0.0
2018-Jan-31 04:30N 29°04' W 094°40'0 0.0
2018-Jan-31 04:00N 29°04' W 094°40'2 0.3
2018-Jan-30 22:29N 29°04' W 094°42'0 0.0
2018-Jan-30 16:15N 29°04' W 094°42'0 0.0
2018-Jan-30 16:00N 29°04' W 094°42'1 2.0
2018-Jan-30 15:20N 29°02' W 094°42'1 0.2
2018-Jan-30 11:44N 29°03' W 094°41'2 0.1
2018-Jan-29 16:37N 29°05' W 094°42'0 0.0
2018-Jan-29 16:22N 29°05' W 094°42'0 0.0
2018-Jan-29 15:55N 29°05' W 094°42'0 0.0
2018-Jan-29 15:01N 29°05' W 094°42'0 0.1
2018-Jan-29 14:55N 29°05' W 094°42'0 0.0
2018-Jan-29 14:28N 29°05' W 094°42'0 0.0
2018-Jan-29 13:58N 29°05' W 094°42'0 0.0
2018-Jan-29 13:28N 29°05' W 094°42'0 0.0
2018-Jan-29 12:49N 29°05' W 094°42'0 0.0
2018-Jan-29 12:25N 29°05' W 094°42'0 0.0
2018-Jan-29 11:55N 29°05' W 094°42'0 0.0
2018-Jan-29 11:25N 29°05' W 094°42'  

Dump ship's entire track history